Fort Stewart, GA

11:25 PM EST on December 04, 2016 (GMT -0500)
Wright Army Air Field | | Change Station

Elev 46 ft 31.89 °N, 81.56 °W | Updated 27 minutes ago

Mostly Cloudy
Mostly Cloudy
62 °F
Feels Like 62 °F
N
0
Wind Variable Wind from North

Today
High -- | Low -- °F
--% Chance of Precip.
Yesterday
High -- | Low -- °F
Precip. -- in
Pressure 29.99 in
Visibility 10.0 miles
Clouds Few 4900 ft
Scattered Clouds 5500 ft
Scattered Clouds 10000 ft
Mostly Cloudy 13000 ft
Dew Point 59 °F
Humidity 89%
Rainfall 0.00 in
Snow Depth Not available.
7:11 AM 5:22 PM
Waxing Crescent, 28% visible
METAR KLHW 050358Z AUTO 00000KT 10SM FEW049 SCT055 SCT100 BKN130 17/15 A2998 RMK AO2 SLP155 T01670149 $
Pressure 29.99 in
Visibility 10.0 miles
Clouds Few 4900 ft
Scattered Clouds 5500 ft
Scattered Clouds 10000 ft
Mostly Cloudy 13000 ft
Dew Point 59 °F
Humidity 89%
Rainfall 0.00 in
Snow Depth Not available.
7:11 AM 5:22 PM
Waxing Crescent, 28% visible
METAR KLHW 050358Z AUTO 00000KT 10SM FEW049 SCT055 SCT100 BKN130 17/15 A2998 RMK AO2 SLP155 T01670149 $

10-Day Weather Forecast

Almanac

Astronomy

Dec. 04, 2016 Rise Set
Actual Time
Civil Twilight
Nautical Twilight
Astronomical Twilight
Moon
Length of Visible Light
Length of Day
Tomorrow will be .
, % of the Moon is Illuminated

Today's Extremes

State Highs State Lows

Community

WunderPhotos

Upload Photos

1,955,759 photos uploaded!

WunderBlog® & News

Nearby

Air Quality

  Air Quality AQ Index Pollutant
Not available.

Snow Depth

Station Depth Elevation

Earthquake Activity

City Distance Mag. Time & Date
Minimum magnitude displayed is 2.5.

Coastal Water Temperatures

Place Temperature

Stations

Nearby Weather Stations

Station Location Temp. Windchill Dew Point Humidity Wind Precip. Elev Updated Type
                   

Watches & Warnings

There are currently no watches in effect.